Aviation Digital Data Service (ADDS)

Output produced by METARs form (1715 UTC 24 February 2017)
found at http://aviationweather.gov/adds/metars/
 
KGMU 241439Z 2415/2512 VRB03KT P6SM BKN008 
     FM241600 18005KT P6SM SCT040 SCT250 
     FM250000 18005KT P6SM SCT200 
     FM250700 20007KT P6SM BKN060 
     FM250900 20007KT P6SM BKN030 
     FM251100 21008KT 5SM BR BKN025